createdAt,value
2022-11-09T00:01:28.993Z,8.57
2022-11-09T00:06:32.037Z,8.18
2022-11-09T00:11:33.686Z,7.82
2022-11-09T00:16:35.327Z,7.65
2022-11-09T00:21:36.864Z,7.80
2022-11-09T00:26:38.337Z,8.05
2022-11-09T00:31:39.857Z,8.40
2022-11-09T00:36:42.194Z,8.15
2022-11-09T00:41:43.741Z,9.13
2022-11-09T00:46:45.435Z,8.60
2022-11-09T00:51:47.016Z,8.82
2022-11-09T00:56:48.814Z,8.82
2022-11-09T01:01:50.462Z,9.23
2022-11-09T01:06:53.324Z,9.07
2022-11-09T01:11:55.010Z,8.45
2022-11-09T01:16:57.356Z,9.55
2022-11-09T01:22:00.966Z,9.20
2022-11-09T01:27:03.339Z,9.65
2022-11-09T01:32:05.441Z,9.35
2022-11-09T01:37:07.013Z,9.15
2022-11-09T01:42:08.550Z,9.65
2022-11-09T01:47:24.239Z,9.95
2022-11-09T01:52:32.088Z,10.30
2022-11-09T01:57:38.303Z,11.38
2022-11-09T02:02:44.771Z,10.25
2022-11-09T02:07:46.692Z,12.07
2022-11-09T02:12:48.936Z,11.05
2022-11-09T02:17:53.545Z,12.15
2022-11-09T02:22:56.391Z,13.70
2022-11-09T02:27:57.970Z,13.05
2022-11-09T02:32:59.569Z,10.90
2022-11-09T02:38:01.718Z,12.25
2022-11-09T02:43:07.358Z,10.50
2022-11-09T02:48:09.005Z,10.95
2022-11-09T02:53:12.085Z,11.05
2022-11-09T02:58:17.867Z,11.00
2022-11-09T03:03:19.850Z,11.10
2022-11-09T03:08:21.890Z,10.75
2022-11-09T03:13:26.060Z,10.75
2022-11-09T03:18:27.923Z,11.27
2022-11-09T03:23:29.659Z,10.30
2022-11-09T03:28:32.023Z,9.98
2022-11-09T03:33:33.954Z,10.75
2022-11-09T03:38:35.873Z,10.48
2022-11-09T03:43:38.128Z,10.40
2022-11-09T03:48:39.701Z,10.73
2022-11-09T03:53:41.214Z,10.38
2022-11-09T03:58:42.742Z,9.95
2022-11-09T04:03:44.258Z,9.95
2022-11-09T04:08:50.959Z,10.05
2022-11-09T04:13:53.917Z,10.13
2022-11-09T04:18:55.391Z,11.70
2022-11-09T04:23:56.908Z,11.35
2022-11-09T04:28:58.365Z,11.38
2022-11-09T04:34:00.026Z,11.40
2022-11-09T04:39:01.665Z,11.25
2022-11-09T04:44:04.005Z,11.23
2022-11-09T04:49:05.558Z,10.63
2022-11-09T04:54:07.189Z,11.02
2022-11-09T04:59:08.797Z,10.88
2022-11-09T05:04:10.426Z,10.48
2022-11-09T05:09:12.131Z,10.20
2022-11-09T05:14:13.796Z,10.02
2022-11-09T05:19:15.345Z,10.30
2022-11-09T05:24:16.897Z,9.23
2022-11-09T05:29:18.369Z,9.18
2022-11-09T05:34:19.881Z,9.70
2022-11-09T05:39:21.379Z,9.65
2022-11-09T05:44:22.934Z,9.63
2022-11-09T05:49:24.706Z,10.98
2022-11-09T05:54:26.249Z,9.40
2022-11-09T05:59:27.746Z,9.73
2022-11-09T06:04:29.314Z,9.70
2022-11-09T06:09:30.868Z,8.65
2022-11-09T06:14:32.367Z,10.20
2022-11-09T06:19:33.920Z,9.68
2022-11-09T06:24:35.504Z,9.10
2022-11-09T06:29:37.072Z,12.82
2022-11-09T06:34:38.552Z,13.15
2022-11-09T06:39:40.094Z,13.52
2022-11-09T06:44:41.579Z,10.82
2022-11-09T06:49:43.139Z,10.23
2022-11-09T06:54:44.721Z,10.00
2022-11-09T06:59:46.260Z,8.68
2022-11-09T07:04:51.424Z,9.43
2022-11-09T07:09:52.966Z,9.82
2022-11-09T07:14:54.455Z,8.57
2022-11-09T07:19:55.945Z,9.95
2022-11-09T07:24:57.445Z,8.82
2022-11-09T07:29:58.934Z,9.27
2022-11-09T07:35:00.486Z,9.38
2022-11-09T07:40:02.178Z,9.50
2022-11-09T07:45:04.097Z,9.45
2022-11-09T07:50:06.094Z,8.77
2022-11-09T07:55:08.107Z,8.88
2022-11-09T08:00:11.115Z,7.95
2022-11-09T08:05:15.648Z,9.20
2022-11-09T08:10:17.275Z,8.02
2022-11-09T08:15:18.806Z,7.47
2022-11-09T08:20:20.394Z,8.63
2022-11-09T08:25:22.190Z,8.13
2022-11-09T08:30:24.643Z,7.70
2022-11-09T08:35:26.774Z,7.82
2022-11-09T08:40:28.904Z,8.07
2022-11-09T08:45:33.116Z,8.68
2022-11-09T08:50:37.736Z,8.15
2022-11-09T08:55:39.299Z,8.38
2022-11-09T09:00:40.858Z,8.38
2022-11-09T09:05:42.366Z,8.77
2022-11-09T09:10:43.898Z,7.20
2022-11-09T09:15:45.429Z,6.60
2022-11-09T09:20:46.945Z,6.57
2022-11-09T09:25:48.448Z,7.13
2022-11-09T09:30:51.153Z,7.10
2022-11-09T09:35:55.631Z,6.75
2022-11-09T09:40:59.606Z,5.40
2022-11-09T09:46:05.070Z,6.60
2022-11-09T09:51:18.744Z,6.65
2022-11-09T09:56:28.484Z,6.90
2022-11-09T10:01:42.042Z,6.32
2022-11-09T10:06:59.690Z,6.60
2022-11-09T10:12:20.475Z,6.60
2022-11-09T10:18:04.865Z,18.77
2022-11-09T10:23:24.794Z,7.22
2022-11-09T10:28:42.328Z,5.85
2022-11-09T10:34:00.222Z,6.68
2022-11-09T10:39:01.919Z,9.75
2022-11-09T10:44:21.768Z,6.10
2022-11-09T10:49:42.948Z,5.63
2022-11-09T10:55:24.306Z,6.95
2022-11-09T11:01:24.675Z,5.68
2022-11-09T11:06:44.620Z,5.82
2022-11-09T11:12:17.410Z,6.80
2022-11-09T11:17:37.932Z,6.45
2022-11-09T11:23:16.574Z,6.22
2022-11-09T11:34:32.019Z,6.43
2022-11-09T11:40:07.771Z,6.28
2022-11-09T11:45:42.421Z,5.97
2022-11-09T11:51:08.727Z,6.28
2022-11-09T11:56:36.297Z,5.97
2022-11-09T12:02:15.320Z,6.00
2022-11-09T12:08:06.234Z,6.32
2022-11-09T12:13:54.183Z,5.65
2022-11-09T12:19:36.150Z,7.30
2022-11-09T12:25:15.027Z,9.05
2022-11-09T12:30:52.909Z,7.00
2022-11-09T12:36:41.490Z,6.90
2022-11-09T12:42:11.244Z,6.05
2022-11-09T12:47:40.239Z,6.40
2022-11-09T12:53:03.531Z,6.00
2022-11-09T12:58:35.060Z,6.55
2022-11-09T13:03:58.473Z,6.72
2022-11-09T13:09:24.437Z,6.30
2022-11-09T13:14:45.578Z,6.03
2022-11-09T13:20:53.887Z,6.47
2022-11-09T13:26:46.604Z,6.68
2022-11-09T13:32:12.530Z,6.40
2022-11-09T13:37:41.916Z,5.85
2022-11-09T13:43:07.993Z,7.05
2022-11-09T13:48:36.245Z,6.90
2022-11-09T13:59:23.335Z,6.30
2022-11-09T14:04:44.273Z,6.47
2022-11-09T14:10:31.734Z,7.18
2022-11-09T14:16:03.101Z,6.40
2022-11-09T14:22:01.937Z,7.25
2022-11-09T14:27:23.456Z,7.65
2022-11-09T14:32:48.811Z,7.35
2022-11-09T14:38:24.874Z,7.63
2022-11-09T14:43:45.048Z,8.25
2022-11-09T14:49:05.052Z,7.75
2022-11-09T14:54:27.042Z,8.05
2022-11-09T14:59:47.957Z,8.18
2022-11-09T15:05:41.217Z,8.95
2022-11-09T15:11:01.261Z,9.15
2022-11-09T15:16:24.434Z,10.90
2022-11-09T15:21:44.631Z,11.07
2022-11-09T15:27:34.877Z,9.50
2022-11-09T15:32:55.090Z,9.82
2022-11-09T15:38:34.242Z,9.15
2022-11-09T15:43:54.418Z,10.75
2022-11-09T15:49:24.834Z,11.82
2022-11-09T15:54:46.915Z,9.60
2022-11-09T16:00:14.406Z,10.38
2022-11-09T16:05:38.033Z,9.88
2022-11-09T16:10:58.106Z,10.20
2022-11-09T16:16:18.539Z,10.38
2022-11-09T16:21:38.819Z,10.52
2022-11-09T16:26:58.858Z,10.38
2022-11-09T16:32:19.028Z,9.88
2022-11-09T16:37:40.474Z,9.70
2022-11-09T16:43:00.660Z,8.60
2022-11-09T16:48:21.127Z,9.98
2022-11-09T16:53:41.337Z,10.75
2022-11-09T16:59:01.671Z,10.80
2022-11-09T17:04:22.429Z,9.55
2022-11-09T17:09:42.511Z,9.55
2022-11-09T17:15:02.933Z,9.63
2022-11-09T17:20:24.038Z,10.02
2022-11-09T17:25:55.909Z,10.40
2022-11-09T17:31:18.662Z,10.70
2022-11-09T17:42:18.531Z,9.93
2022-11-09T17:47:38.707Z,11.38
2022-11-09T17:52:58.732Z,9.88
2022-11-09T17:58:19.284Z,10.20
2022-11-09T18:03:39.797Z,10.80
2022-11-09T18:09:34.314Z,10.80
2022-11-09T18:14:40.013Z,11.00
2022-11-09T18:20:00.305Z,11.18
2022-11-09T18:25:21.569Z,10.75
2022-11-09T18:30:41.939Z,11.98
2022-11-09T18:36:05.318Z,13.88
2022-11-09T18:41:26.309Z,12.80
2022-11-09T18:46:47.185Z,12.27
2022-11-09T18:52:07.154Z,11.50
2022-11-09T18:57:27.347Z,16.05
2022-11-09T19:02:47.680Z,49.63
2022-11-09T19:08:08.590Z,15.98
2022-11-09T19:13:28.556Z,14.98
2022-11-09T19:18:49.106Z,21.83
2022-11-09T19:24:13.414Z,13.63
2022-11-09T19:29:33.795Z,12.38
2022-11-09T19:34:54.108Z,11.43
2022-11-09T19:40:14.465Z,11.40
2022-11-09T19:45:42.692Z,12.18
2022-11-09T19:51:04.443Z,11.77
2022-11-09T19:56:26.749Z,11.15
2022-11-09T20:01:46.761Z,11.98
2022-11-09T20:07:06.877Z,11.25
2022-11-09T20:12:45.801Z,11.00
2022-11-09T20:18:06.409Z,11.48
2022-11-09T20:23:27.800Z,12.20
2022-11-09T20:28:48.327Z,11.18
2022-11-09T20:34:08.778Z,11.10
2022-11-09T20:39:29.285Z,10.07
2022-11-09T20:44:52.150Z,10.48
2022-11-09T20:50:12.817Z,10.48
2022-11-09T20:55:36.488Z,9.95
2022-11-09T21:01:04.489Z,10.68
2022-11-09T21:06:24.584Z,9.50
2022-11-09T21:12:03.699Z,9.88
2022-11-09T21:17:23.969Z,12.23
2022-11-09T21:23:02.714Z,13.20
2022-11-09T21:28:42.406Z,10.07
2022-11-09T21:34:02.872Z,12.93
2022-11-09T21:39:23.557Z,45.38
2022-11-09T21:44:43.863Z,36.53
2022-11-09T21:50:08.235Z,40.72
2022-11-09T21:55:31.578Z,18.70
2022-11-09T22:00:52.010Z,24.50
2022-11-09T22:06:14.258Z,18.88
2022-11-09T22:11:53.069Z,13.65
2022-11-09T22:17:13.651Z,12.13
2022-11-09T22:22:34.313Z,9.63
2022-11-09T22:27:55.534Z,9.75
2022-11-09T22:33:20.709Z,9.02
2022-11-09T22:38:43.729Z,9.13
2022-11-09T22:44:04.231Z,8.55
2022-11-09T22:49:24.683Z,9.23
2022-11-09T22:54:45.008Z,7.97
2022-11-09T23:00:06.122Z,9.40
2022-11-09T23:05:26.523Z,8.55
2022-11-09T23:10:54.942Z,8.50
2022-11-09T23:16:15.096Z,8.60
2022-11-09T23:21:37.286Z,8.57
2022-11-09T23:26:57.758Z,9.18
2022-11-09T23:32:17.857Z,8.10
2022-11-09T23:37:38.111Z,7.97
2022-11-09T23:43:05.343Z,6.55
2022-11-09T23:48:25.620Z,6.40
2022-11-09T23:53:45.868Z,5.68
2022-11-09T23:59:05.957Z,5.32
